Time;durP1;ratioP1;P1;durP2;ratioP2;P2;SDS_P1;SDS_P2;PMS_P1;PMS_P2;Temp;Humidity;BMP_temperature;BMP_pressure;BME280_temperature;BME280_humidity;BME280_pressure;Samples;Min_cycle;Max_cycle;Signal;HPM_P1;HPM_P2
2022/04/02 00:03:22;;;;;;;5.60;2.28;;;;;;;;;;6265976;22;20020;-88
2022/04/02 00:05:48;;;;;;;6.82;2.63;;;;;;;;;;6214032;22;20015;-86
2022/04/02 00:08:14;;;;;;;3.50;2.60;;;;;;;;;;6188335;22;20054;-86
2022/04/02 00:10:40;;;;;;;5.07;2.35;;;;;;;;;;6187751;22;20027;-86
2022/04/02 00:13:06;;;;;;;4.53;2.60;;;;;;;;;;6239814;22;20378;-86
2022/04/02 00:15:32;;;;;;;8.45;2.40;;;;;;;;;;6265096;22;20022;-88
2022/04/02 00:17:59;;;;;;;9.98;2.40;;;;;;;;;;6215175;22;20441;-85
2022/04/02 00:20:25;;;;;;;7.68;2.63;;;;;;;;;;6265355;22;20325;-89
2022/04/02 00:25:37;;;;;;;9.27;2.72;;;;;;;;;;6244712;22;20518;-87
2022/04/02 00:28:03;;;;;;;3.90;1.90;;;;;;;;;;6274865;22;20027;-86
2022/04/02 00:30:29;;;;;;;5.10;2.35;;;;;;;;;;6247885;22;20019;-86
2022/04/02 00:32:55;;;;;;;4.65;2.05;;;;;;;;;;6218755;22;20322;-86
2022/04/02 00:35:21;;;;;;;5.68;2.10;;;;;;;;;;6244075;22;20356;-82
2022/04/02 00:37:47;;;;;;;3.20;1.85;;;;;;;;;;6274074;22;20015;-84
2022/04/02 00:40:13;;;;;;;4.85;2.10;;;;;;;;;;6264758;22;20022;-85
2022/04/02 00:42:39;;;;;;;4.22;2.05;;;;;;;;;;6273976;22;20012;-86
2022/04/02 00:45:06;;;;;;;4.90;2.20;;;;;;;;;;6241598;22;20080;-85
2022/04/02 00:47:32;;;;;;;5.50;1.90;;;;;;;;;;6210040;22;20023;-85
2022/04/02 00:49:58;;;;;;;3.60;1.73;;;;;;;;;;6265657;22;20023;-85
2022/04/02 00:52:28;;;;;;;5.78;2.08;;;;;;;;;;6236153;22;20062;-86
2022/04/02 00:54:54;;;;;;;3.20;2.05;;;;;;;;;;6188503;22;20467;-86
2022/04/02 00:57:22;;;;;;;6.43;2.15;;;;;;;;;;6187110;22;20020;-86
2022/04/02 00:59:49;;;;;;;4.05;2.15;;;;;;;;;;6263793;22;20019;-86
2022/04/02 01:02:15;;;;;;;5.80;2.58;;;;;;;;;;6187598;22;20018;-86
2022/04/02 01:04:41;;;;;;;2.70;1.80;;;;;;;;;;6236745;22;20015;-85
2022/04/02 01:07:10;;;;;;;2.92;1.92;;;;;;;;;;6211734;22;20016;-87
2022/04/02 01:09:36;;;;;;;4.25;2.03;;;;;;;;;;6209853;22;20436;-86
2022/04/02 01:12:02;;;;;;;3.25;1.88;;;;;;;;;;6189265;22;20388;-86
2022/04/02 01:14:29;;;;;;;5.65;1.92;;;;;;;;;;6212147;22;20364;-85
2022/04/02 01:16:55;;;;;;;6.53;2.10;;;;;;;;;;6239714;22;20020;-85
2022/04/02 01:19:30;;;;;;;3.33;2.10;;;;;;;;;;6236567;22;20107;-85
2022/04/02 01:21:56;;;;;;;5.90;2.13;;;;;;;;;;6187883;22;20031;-86
2022/04/02 01:24:56;;;;;;;6.40;1.98;;;;;;;;;;6187209;22;20118;-86
2022/04/02 01:27:23;;;;;;;3.25;1.77;;;;;;;;;;6213828;22;20027;-86
2022/04/02 01:30:05;;;;;;;6.55;2.15;;;;;;;;;;6238803;22;20455;-86
2022/04/02 01:32:32;;;;;;;9.20;2.33;;;;;;;;;;6263384;22;20020;-87
2022/04/02 01:34:58;;;;;;;5.90;1.88;;;;;;;;;;6266442;22;20016;-86
2022/04/02 01:37:24;;;;;;;7.70;2.08;;;;;;;;;;6238402;22;20028;-87
2022/04/02 01:39:50;;;;;;;2.92;1.80;;;;;;;;;;6264973;22;20038;-85
2022/04/02 01:42:20;;;;;;;6.03;2.10;;;;;;;;;;6264776;22;20449;-86
2022/04/02 01:44:51;;;;;;;8.10;2.15;;;;;;;;;;6237349;22;20051;-86
2022/04/02 01:47:18;;;;;;;3.58;1.95;;;;;;;;;;6237037;22;20045;-86
2022/04/02 01:49:45;;;;;;;6.63;2.15;;;;;;;;;;6265463;22;20024;-85
2022/04/02 01:52:12;;;;;;;6.43;2.58;;;;;;;;;;6237714;22;20019;-85
2022/04/02 01:54:38;;;;;;;4.93;1.58;;;;;;;;;;6211872;22;20143;-86
2022/04/02 01:57:04;;;;;;;4.90;2.00;;;;;;;;;;6238546;22;20031;-84
2022/04/02 01:59:30;;;;;;;5.00;2.03;;;;;;;;;;6266062;22;20022;-85
2022/04/02 02:01:57;;;;;;;6.85;2.08;;;;;;;;;;6240400;22;20020;-86
2022/04/02 02:04:24;;;;;;;5.50;1.67;;;;;;;;;;6237630;22;20028;-86
2022/04/02 02:06:50;;;;;;;3.25;1.90;;;;;;;;;;6239606;22;20034;-87
2022/04/02 02:09:16;;;;;;;4.85;1.90;;;;;;;;;;6238070;22;20019;-86
2022/04/02 02:11:42;;;;;;;4.22;2.08;;;;;;;;;;6265788;22;20023;-86
2022/04/02 02:14:17;;;;;;;7.80;1.98;;;;;;;;;;6266901;22;20016;-86
2022/04/02 02:16:44;;;;;;;6.25;2.20;;;;;;;;;;6240298;22;20097;-86
2022/04/02 02:19:10;;;;;;;13.27;2.80;;;;;;;;;;6215132;22;20463;-85
2022/04/02 02:21:36;;;;;;;4.57;2.08;;;;;;;;;;6239924;22;20118;-86
2022/04/02 02:24:04;;;;;;;2.60;1.80;;;;;;;;;;6243141;22;20024;-85
2022/04/02 02:26:31;;;;;;;5.22;1.75;;;;;;;;;;6271465;22;20479;-84
2022/04/02 02:28:57;;;;;;;5.28;1.90;;;;;;;;;;6241247;22;20344;-86
2022/04/02 02:31:24;;;;;;;5.72;1.95;;;;;;;;;;6266807;22;20020;-87
2022/04/02 02:36:59;;;;;;;8.20;2.53;;;;;;;;;;6239901;22;20023;-85
2022/04/02 02:39:25;;;;;;;7.97;2.25;;;;;;;;;;6266687;22;20094;-89
2022/04/02 02:41:51;;;;;;;7.20;2.10;;;;;;;;;;6267154;22;20090;-88
2022/04/02 02:44:17;;;;;;;5.30;2.25;;;;;;;;;;6267521;22;20016;-88
2022/04/02 02:46:52;;;;;;;4.00;1.98;;;;;;;;;;6240824;22;20069;-85
2022/04/02 02:49:18;;;;;;;3.75;1.83;;;;;;;;;;6239489;22;20023;-87
2022/04/02 02:51:44;;;;;;;3.65;1.90;;;;;;;;;;6239426;22;20597;-86
2022/04/02 02:54:10;;;;;;;2.90;2.08;;;;;;;;;;6239231;22;20023;-86
2022/04/02 02:56:37;;;;;;;3.92;2.10;;;;;;;;;;6266209;22;20020;-85
2022/04/02 02:59:04;;;;;;;4.03;2.03;;;;;;;;;;6266086;22;20027;-85
2022/04/02 03:01:31;;;;;;;20.60;1.90;;;;;;;;;;6238323;22;20027;-86
2022/04/02 03:03:57;;;;;;;8.43;1.92;;;;;;;;;;6238809;22;20047;-85
2022/04/02 03:06:26;;;;;;;8.50;1.95;;;;;;;;;;6239548;22;20031;-86
2022/04/02 03:08:52;;;;;;;6.07;2.72;;;;;;;;;;6239525;22;20027;-86
2022/04/02 03:11:18;;;;;;;5.05;2.20;;;;;;;;;;6190230;22;20688;-86
2022/04/02 03:13:44;;;;;;;7.05;2.33;;;;;;;;;;6190987;22;20019;-86
2022/04/02 03:16:11;;;;;;;8.50;2.00;;;;;;;;;;6242722;22;20028;-86
2022/04/02 03:18:37;;;;;;;6.20;2.30;;;;;;;;;;6274879;22;20015;-87
2022/04/02 03:21:09;;;;;;;5.32;2.40;;;;;;;;;;6290776;22;20054;-85
2022/04/02 03:23:36;;;;;;;5.03;2.30;;;;;;;;;;6261314;22;20068;-85
2022/04/02 03:26:02;;;;;;;9.93;2.60;;;;;;;;;;6260545;22;20020;-87
2022/04/02 03:28:28;;;;;;;4.53;2.25;;;;;;;;;;6260105;22;20016;-85
2022/04/02 03:31:00;;;;;;;7.47;2.28;;;;;;;;;;6288026;22;20421;-86
2022/04/02 03:33:27;;;;;;;6.10;2.25;;;;;;;;;;6244673;22;20028;-89
2022/04/02 03:35:53;;;;;;;6.65;2.38;;;;;;;;;;6265826;22;20015;-86
2022/04/02 03:38:19;;;;;;;11.60;2.75;;;;;;;;;;6239432;22;20023;-88
2022/04/02 03:40:45;;;;;;;5.57;2.40;;;;;;;;;;6188472;22;20068;-87
2022/04/02 03:43:11;;;;;;;7.00;2.22;;;;;;;;;;6189614;22;20035;-85
2022/04/02 03:45:38;;;;;;;7.75;2.63;;;;;;;;;;6188374;22;20509;-88
2022/04/02 03:48:04;;;;;;;4.85;2.13;;;;;;;;;;6189681;22;20095;-88
2022/04/02 03:50:30;;;;;;;5.63;2.47;;;;;;;;;;6264711;22;20019;-85
2022/04/02 03:52:56;;;;;;;6.70;2.42;;;;;;;;;;6239194;22;20020;-85
2022/04/02 03:55:22;;;;;;;4.95;2.00;;;;;;;;;;6214920;22;20019;-87
2022/04/02 03:57:49;;;;;;;8.68;2.67;;;;;;;;;;6267936;22;20027;-87
2022/04/02 04:00:16;;;;;;;5.13;2.25;;;;;;;;;;6265671;22;20085;-86
2022/04/02 04:02:42;;;;;;;3.65;2.05;;;;;;;;;;6265393;22;20030;-84
2022/04/02 04:05:08;;;;;;;3.85;2.10;;;;;;;;;;6266818;22;20069;-88
2022/04/02 04:07:36;;;;;;;6.03;2.20;;;;;;;;;;6209652;22;20428;-89
2022/04/02 04:10:03;;;;;;;4.07;2.13;;;;;;;;;;6265311;22;20051;-85
2022/04/02 04:12:29;;;;;;;3.10;2.00;;;;;;;;;;6236486;22;20464;-86
2022/04/02 04:14:56;;;;;;;3.10;1.90;;;;;;;;;;6267252;22;20387;-89
2022/04/02 04:17:23;;;;;;;3.60;2.22;;;;;;;;;;6264045;22;20652;-86
2022/04/02 04:19:50;;;;;;;3.90;2.33;;;;;;;;;;6212658;22;20019;-85
2022/04/02 04:22:18;;;;;;;4.90;2.40;;;;;;;;;;6187884;22;20153;-86
2022/04/02 04:24:44;;;;;;;6.57;2.40;;;;;;;;;;6211731;22;20055;-86
2022/04/02 04:27:10;;;;;;;5.35;2.35;;;;;;;;;;6187205;22;20030;-84
2022/04/02 04:29:37;;;;;;;6.78;2.60;;;;;;;;;;6267560;22;20023;-86
2022/04/02 04:32:03;;;;;;;9.88;2.75;;;;;;;;;;6238837;22;20023;-87
2022/04/02 04:34:29;;;;;;;6.13;2.53;;;;;;;;;;6211942;22;20062;-86
2022/04/02 04:36:55;;;;;;;6.28;2.78;;;;;;;;;;6266329;22;20446;-86
2022/04/02 04:39:22;;;;;;;8.65;3.00;;;;;;;;;;6265138;22;20012;-87
2022/04/02 04:41:48;;;;;;;7.00;3.03;;;;;;;;;;6269414;22;20043;-84
2022/04/02 04:44:14;;;;;;;8.57;2.90;;;;;;;;;;6198834;22;20123;-90
2022/04/02 04:46:40;;;;;;;5.95;3.00;;;;;;;;;;6225107;22;20095;-86
2022/04/02 04:49:06;;;;;;;4.53;2.58;;;;;;;;;;6238430;22;20426;-86
2022/04/02 04:51:32;;;;;;;8.27;3.78;;;;;;;;;;6188266;22;20019;-87
2022/04/02 04:53:58;;;;;;;12.23;3.40;;;;;;;;;;6265163;22;20464;-86
2022/04/02 04:56:24;;;;;;;9.43;4.90;;;;;;;;;;6265901;22;20557;-87
2022/04/02 04:58:51;;;;;;;12.13;6.05;;;;;;;;;;6189008;22;20380;-87
2022/04/02 05:01:17;;;;;;;10.80;5.97;;;;;;;;;;6235090;22;20526;-86
2022/04/02 05:03:43;;;;;;;10.10;4.50;;;;;;;;;;6239144;22;20066;-86
2022/04/02 05:06:10;;;;;;;10.45;5.03;;;;;;;;;;6263999;22;20027;-87
2022/04/02 05:08:36;;;;;;;9.63;5.07;;;;;;;;;;6265611;22;20023;-86
2022/04/02 05:11:02;;;;;;;7.15;3.08;;;;;;;;;;6262704;22;20490;-85
2022/04/02 05:13:28;;;;;;;6.47;3.58;;;;;;;;;;6237616;22;20094;-86
2022/04/02 05:15:55;;;;;;;10.25;3.35;;;;;;;;;;6187596;22;20034;-87
2022/04/02 05:18:21;;;;;;;2.83;2.40;;;;;;;;;;6239470;22;20018;-86
2022/04/02 05:20:47;;;;;;;6.55;2.85;;;;;;;;;;6212206;22;20012;-85
2022/04/02 05:23:14;;;;;;;6.53;3.03;;;;;;;;;;6187108;22;20102;-87
2022/04/02 05:25:40;;;;;;;7.13;3.65;;;;;;;;;;6186273;22;20015;-86
2022/04/02 05:28:06;;;;;;;7.57;2.92;;;;;;;;;;6185127;22;20078;-86
2022/04/02 05:30:35;;;;;;;4.78;2.53;;;;;;;;;;6263676;22;20020;-87
2022/04/02 05:33:11;;;;;;;3.45;2.40;;;;;;;;;;6208340;22;20030;-87
2022/04/02 05:35:37;;;;;;;3.28;2.00;;;;;;;;;;6265887;22;20024;-87
2022/04/02 05:38:04;;;;;;;3.33;2.15;;;;;;;;;;6211992;22;20050;-87
2022/04/02 05:40:30;;;;;;;2.53;1.98;;;;;;;;;;6212459;22;20018;-86
2022/04/02 05:42:57;;;;;;;3.67;1.92;;;;;;;;;;6186544;22;20047;-86
2022/04/02 05:45:23;;;;;;;4.55;2.10;;;;;;;;;;6237893;22;20015;-87
2022/04/02 05:47:51;;;;;;;2.80;1.83;;;;;;;;;;6239415;22;20058;-85
2022/04/02 05:50:18;;;;;;;3.33;1.88;;;;;;;;;;6239707;22;20023;-88
2022/04/02 05:53:13;;;;;;;6.53;1.90;;;;;;;;;;6238808;22;20015;-86
2022/04/02 05:55:47;;;;;;;6.53;2.33;;;;;;;;;;6212960;22;20054;-88
2022/04/02 05:58:13;;;;;;;3.70;1.98;;;;;;;;;;6213377;22;20390;-88
2022/04/02 06:04:17;;;;;;;5.90;2.47;;;;;;;;;;6028112;23;20038;-84
2022/04/02 06:06:49;;;;;;;5.15;2.22;;;;;;;;;;6051155;23;20025;-88
2022/04/02 06:16:23;;;;;;;1.67;1.50;;;;;;;;;;6149421;23;20099;-89
2022/04/02 06:18:50;;;;;;;3.85;1.77;;;;;;;;;;6117109;23;20033;-88
2022/04/02 06:21:49;;;;;;;7.05;2.22;;;4.00;99.90;;;;;;6094645;23;20176;-87
2022/04/02 06:24:17;;;;;;;4.85;1.77;;;;;;;;;;6119340;23;20021;-87
2022/04/02 06:26:43;;;;;;;4.43;2.60;;;;;;;;;;6099712;23;20049;-86
2022/04/02 06:29:31;;;;;;;8.02;2.47;;;;;;;;;;6256323;22;20065;-87
2022/04/02 06:31:57;;;;;;;3.05;2.08;;;;;;;;;;6241039;22;20022;-89
2022/04/02 06:34:26;;;;;;;2.72;1.60;;;;;;;;;;6220448;22;20011;-89
2022/04/02 06:36:54;;;;;;;4.78;1.42;;;;;;;;;;6213126;22;20059;-89
2022/04/02 06:39:20;;;;;;;3.03;1.70;;;;;;;;;;6267181;22;20011;-87
2022/04/02 06:41:46;;;;;;;2.45;1.48;;;;;;;;;;6265467;22;20020;-89
2022/04/02 06:44:22;;;;;;;3.90;1.80;;;;;;;;;;6265865;22;20042;-89
2022/04/02 06:47:03;;;;;;;1.90;1.67;;;;;;;;;;6211339;22;20157;-88
2022/04/02 06:49:29;;;;;;;2.40;1.95;;;;;;;;;;6271152;22;20351;-87
2022/04/02 06:51:57;;;;;;;5.25;2.13;;;;;;;;;;6271163;22;20024;-87
2022/04/02 06:54:23;;;;;;;3.92;2.38;;;;;;;;;;6241543;22;20451;-86
2022/04/02 06:56:58;;;;;;;6.18;1.77;;;;;;;;;;6239140;22;20077;-86
2022/04/02 06:59:25;;;;;;;3.00;2.00;;;;;;;;;;6268557;22;20444;-86
2022/04/02 07:01:51;;;;;;;3.97;1.92;;;;;;;;;;6241495;22;20023;-87
2022/04/02 07:04:17;;;;;;;2.40;2.00;;;;;;;;;;6265349;22;20015;-87
2022/04/02 07:06:45;;;;;;;4.50;2.13;;;;;;;;;;6266542;22;20039;-88
2022/04/02 07:09:12;;;;;;;4.00;2.47;;;;;;;;;;6266867;22;20065;-88
2022/04/02 07:14:10;;;;;;;4.10;2.22;;;;;;;;;;6270093;22;20071;-87
2022/04/02 07:16:36;;;;;;;4.45;1.58;;;;;;;;;;6215488;22;20099;-87
2022/04/02 07:22:18;;;;;;;6.78;2.83;;;;;;;;;;6142034;23;20066;-86
2022/04/02 07:24:44;;;;;;;7.43;2.55;;;;;;;;;;6242504;22;20432;-86
2022/04/02 07:27:17;;;;;;;6.15;2.60;;;;;;;;;;6267684;22;20015;-86
2022/04/02 07:29:56;;;;;;;5.55;1.92;;;;;;;;;;6243449;22;20020;-85
2022/04/02 07:32:41;;;;;;;4.47;1.70;;;;;;;;;;6215494;22;20023;-86
2022/04/02 07:35:08;;;;;;;6.05;2.28;;;;;;;;;;6242722;22;20047;-86
2022/04/02 07:37:53;;;;;;;3.67;1.73;;;;;;;;;;6267642;22;20020;-86
2022/04/02 07:40:21;;;;;;;2.85;1.00;;;;;;;;;;6216550;22;20047;-88
2022/04/02 07:43:03;;;;;;;3.78;1.50;;;;;;;;;;6224283;22;20015;-88
2022/04/02 07:46:04;;;;;;;3.08;1.60;;;;;;;;;;6282562;22;20019;-87
2022/04/02 07:48:34;;;;;;;2.88;1.50;;;;;;;;;;6244005;22;20078;-87
2022/04/02 07:54:26;;;;;;;1.85;1.40;;;;;;;;;;6146866;23;20037;-89
2022/04/02 08:00:15;;;;;;;2.13;1.30;;;;;;;;;;6147304;23;20445;-88
2022/04/02 08:02:45;;;;;;;4.97;1.50;;;;;;;;;;6145799;23;20420;-88
2022/04/02 08:05:39;;;;;;;5.43;1.45;;;;;;;;;;6096969;23;20018;-88
2022/04/02 08:08:07;;;;;;;2.28;1.45;;;;;;;;;;6120769;23;20049;-88
2022/04/02 08:10:45;;;;;;;3.97;1.50;;;;;;;;;;6121551;23;20104;-88
2022/04/02 08:16:57;;;;;;;2.17;1.15;;;;;;;;;;6200668;23;20024;-87
2022/04/02 08:19:37;;;;;;;4.03;1.35;;;;;;;;;;6204395;23;20017;-88
2022/04/02 08:25:48;;;;;;;6.85;1.52;;;;;;;;;;6204365;23;20309;-90
2022/04/02 08:28:19;;;;;;;1.25;0.85;;;;;;;;;;6178295;23;20021;-88
2022/04/02 08:30:48;;;;;;;3.72;1.10;;;;;;;;;;6175823;23;20062;-87
2022/04/02 08:33:38;;;;;;;3.50;1.20;;;;;;;;;;6178298;23;20071;-88
2022/04/02 08:39:32;;;;;;;5.80;1.33;;;;;;;;;;6182603;22;20032;-89
2022/04/02 08:42:13;;;;;;;6.60;1.10;;;;;;;;;;6127016;23;20028;-87
2022/04/02 08:45:01;;;;;;;3.50;1.65;;;;;;;;;;6126707;23;20039;-87
2022/04/02 08:47:46;;;;;;;9.75;1.38;;;;;;;;;;6177791;23;20137;-86
2022/04/02 08:50:12;;;;;;;;;;;;;;;;;;6177298;23;20099;-88
2022/04/02 08:53:06;;;;;;;8.95;1.35;;;;;;;;;;6178212;23;19916;-89
2022/04/02 08:55:38;;;;;;;5.35;1.42;;;;;;;;;;6155841;23;20391;-86
2022/04/02 08:58:08;;;;;;;3.70;1.35;;;;;;;;;;6193664;23;20017;-88
2022/04/02 09:01:00;;;;;;;6.97;1.52;;;;;;;;;;6195044;23;20064;-88
2022/04/02 09:03:51;;;;;;;4.10;1.33;;;;;;;;;;6151046;23;20095;-88
2022/04/02 09:06:27;;;;;;;3.78;1.50;;;;;;;;;;6126587;23;20116;-87
2022/04/02 09:09:15;;;;;;;6.43;1.50;;;;;;;;;;6148516;23;20036;-89
2022/04/02 09:11:56;;;;;;;4.40;1.58;;;;;;;;;;6150451;23;20033;-88
2022/04/02 09:14:41;;;;;;;9.65;1.83;;;;;;;;;;6126305;23;20029;-88
2022/04/02 09:17:30;;;;;;;4.47;1.40;;;;;;;;;;6126591;23;20035;-88
2022/04/02 09:20:21;;;;;;;6.18;1.52;;;;;;;;;;6150627;23;20021;-87
2022/04/02 09:23:12;;;;;;;3.15;1.20;;;;;;;;;;6125770;23;20016;-88
2022/04/02 09:25:44;;;;;;;2.58;1.23;;;;;;;;;;6129273;23;20021;-87
2022/04/02 09:28:26;;;;;;;2.38;1.25;;;;;;;;;;6177047;23;20024;-89
2022/04/02 09:33:24;;;;;;;2.85;1.35;;;;;;;;;;6233673;23;20028;-88
2022/04/02 09:36:17;;;;;;;3.00;1.10;;;;;;;;;;6207067;23;20028;-89
2022/04/02 09:41:58;;;;;;;4.93;1.60;;;;;;;;;;6186884;23;20026;-87
2022/04/02 09:44:48;;;;;;;2.95;1.30;;;;;;;;;;6206191;23;20081;-88
2022/04/02 09:47:35;;;;;;;6.13;1.33;;;;;;;;;;6209634;23;20020;-85
2022/04/02 09:50:04;;;;;;;1.38;0.75;;;;;;;;;;6160327;23;20020;-88
2022/04/02 09:52:31;;;;;;;2.90;1.52;;;;;;;;;;6207949;23;20020;-85
2022/04/02 09:55:03;;;;;;;3.03;1.52;;;;;;;;;;6206105;23;20035;-85
2022/04/02 09:58:09;;;;;;;3.53;2.03;;;;;;;;;;6178155;23;20031;-87
2022/04/02 10:00:52;;;;;;;5.15;1.88;;;;;;;;;;6235436;23;20051;-86
2022/04/02 10:09:51;;;;;;;5.60;1.80;;;;;;;;;;6238164;23;20085;-87
2022/04/02 10:12:42;;;;;;;2.35;1.60;;;;;;;;;;6237421;23;20183;-88
2022/04/02 10:15:22;;;;;;;3.00;1.40;;;;;;;;;;6181525;23;20031;-87
2022/04/02 10:17:52;;;;;;;2.30;1.38;;;;;;;;;;6206837;23;20054;-87
2022/04/02 10:20:29;;;;;;;1.45;1.05;;;;;;;;;;6233839;22;20508;-88
2022/04/02 10:23:02;;;;;;;3.88;2.10;;;;;;;;;;6209868;23;20110;-88
2022/04/02 10:25:33;;;;;;;4.43;2.13;;;;;;;;;;6183073;23;20397;-87
2022/04/02 10:28:02;;;;;;;3.03;1.90;;;;;;;;;;6183510;23;20115;-88
2022/04/02 10:30:29;;;;;;;5.32;2.10;;;;;;;;;;6237453;23;20035;-88
2022/04/02 10:33:42;;;;;;;3.38;1.50;;;;;;;;;;6218300;23;20024;-87
2022/04/02 10:35:53;;;;;;;5.57;1.92;;;;;;;;;;6219430;23;20119;-88
2022/04/02 10:38:57;;;;;;;4.10;1.88;;;5.90;99.90;;;;;;6183653;23;20028;-84
2022/04/02 10:41:30;;;;;;;5.40;2.00;;;;;;;;;;6237555;23;20024;-87
2022/04/02 10:44:19;;;;;;;6.32;2.42;;;;;;;;;;6235336;23;20024;-85
2022/04/02 10:46:54;;;;;;;5.15;1.95;;;;;;;;;;6184386;23;20028;-86
2022/04/02 10:49:25;;;;;;;4.45;2.40;;;;;;;;;;6210685;23;20616;-86
2022/04/02 10:51:55;;;;;;;4.05;2.38;;;;;;;;;;6236012;23;20083;-86
2022/04/02 10:54:27;;;;;;;10.00;1.67;;;;;;;;;;6210057;23;20031;-86
2022/04/02 11:00:00;;;;;;;4.18;1.50;;;;;;;;;;6192061;23;20023;-85
2022/04/02 11:02:34;;;;;;;5.75;1.50;;;;;;;;;;6194740;23;20027;-86
2022/04/02 11:05:06;;;;;;;2.22;1.33;;;;;;;;;;6199290;23;20016;-85
2022/04/02 11:07:44;;;;;;;5.82;1.23;;;;;;;;;;6244544;23;20016;-86
2022/04/02 11:10:22;;;;;;;6.20;1.80;;;;;;;;;;6201521;23;20571;-86
2022/04/02 11:12:49;;;;;;;3.97;1.38;;;;;;;;;;6203266;23;20099;-86
2022/04/02 11:15:23;;;;;;;5.18;1.17;;;;;;;;;;6201924;23;20020;-84
2022/04/02 11:17:53;;;;;;;1.95;1.20;;;;;;;;;;6188818;23;20020;-86
2022/04/02 11:20:29;;;;;;;2.45;1.38;;;;;;;;;;6234879;23;20024;-86
2022/04/02 11:23:08;;;;;;;1.00;0.90;;;;;;;;;;6184436;23;20024;-87
2022/04/02 11:25:35;;;;;;;3.80;1.50;;;;;;;;;;6183041;23;20019;-89
2022/04/02 11:28:12;;;;;;;2.05;1.23;;;;;;;;;;6237494;23;20016;-88
2022/04/02 11:30:39;;;;;;;3.20;1.10;;;;;;;;;;6209767;23;20345;-87
2022/04/02 11:33:06;;;;;;;5.13;2.05;;;;;;;;;;6209782;23;20020;-86
2022/04/02 11:35:37;;;;;;;4.65;1.40;;;;;;;;;;6206263;23;20021;-89
2022/04/02 11:38:23;;;;;;;5.20;2.65;;;;;;;;;;6216385;22;20468;-87
2022/04/02 11:44:07;;;;;;;3.38;1.40;;;;;;;;;;6267184;22;20023;-88
2022/04/02 11:50:04;;;;;;;6.03;1.80;;;;;;;;;;6242049;22;20100;-86
2022/04/02 11:52:48;;;;;;;3.35;2.10;;;;;;;;;;6163306;23;20098;-88
2022/04/02 11:58:05;;;;;;;3.83;1.92;;;;;;;;;;6238283;23;20052;-87
2022/04/02 12:00:32;;;;;;;6.88;1.88;;;;;;;;;;6192842;23;20768;-85
2022/04/02 12:03:01;;;;;;;5.03;1.80;;;;;;;;;;6211609;23;20352;-86
2022/04/02 12:05:40;;;;;;;3.00;1.70;;;;;;;;;;6186596;23;20039;-87
2022/04/02 12:08:07;;;;;;;2.42;1.63;;;;;;;;;;6186732;23;20016;-85
2022/04/02 12:10:36;;;;;;;5.75;1.50;;;;;;;;;;6162837;23;20038;-87
2022/04/02 12:13:07;;;;;;;3.22;1.45;;;;;;;;;;6211102;23;20223;-87
2022/04/02 12:15:36;;;;;;;3.90;1.40;;;;;;;;;;6187566;23;20020;-84
2022/04/02 12:18:04;;;;;;;4.70;1.30;;;;;;;;;;6209720;23;20133;-85
2022/04/02 12:20:52;;;;;;;4.10;1.38;;;;;;;;;;6187081;23;20020;-87
2022/04/02 12:23:33;;;;;;;8.07;1.80;;;;;;;;;;6203555;23;20016;-87
2022/04/02 12:26:00;;;;;;;3.97;1.95;;;;;;;;;;6186640;23;20027;-87
2022/04/02 12:28:26;;;;;;;2.20;1.48;;;;;;;;;;6213394;23;20104;-87
2022/04/02 12:30:53;;;;;;;3.47;1.92;;;;;;;;;;6186551;23;20015;-88
2022/04/02 12:33:22;;;;;;;9.63;1.95;;;;;;;;;;6238293;23;20349;-86
2022/04/02 12:36:06;;;;;;;9.48;1.90;;;;;;;;;;6211286;23;20059;-88
2022/04/02 12:38:34;;;;;;;6.88;1.70;;;;;;;;;;6239587;23;20035;-87
2022/04/02 12:41:28;;;;;;;10.98;2.40;;;;;;;;;;6236722;23;20031;-88
2022/04/02 12:44:07;;;;;;;7.78;1.98;;;;;;;;;;6238169;23;20020;-88
2022/04/02 12:46:33;;;;;;;5.35;1.60;;;;;;;;;;6185924;23;20864;-88
2022/04/02 12:48:59;;;;;;;9.07;1.70;;;;;;;;;;6185763;23;20020;-87
2022/04/02 12:54:52;;;;;;;3.30;1.40;;;;;;;;;;6239566;23;20051;-87
2022/04/02 12:57:18;;;;;;;2.83;1.40;;;;;;;;;;6215579;23;20112;-88
2022/04/02 12:59:51;;;;;;;1.92;1.20;;;;;;;;;;6176873;23;20329;-88
2022/04/02 13:02:20;;;;;;;4.10;1.42;;;;;;;;;;6176738;23;20027;-88
2022/04/02 13:05:11;;;;;;;5.88;1.95;;;;;;;;;;6204497;23;20396;-87
2022/04/02 13:07:38;;;;;;;4.75;1.35;;;;;;;;;;6210600;23;20035;-87
2022/04/02 13:10:07;;;;;;;5.00;1.35;;;;;;;;;;6223874;23;20028;-86
2022/04/02 13:12:52;;;;;;;2.38;1.38;;;;;;;;;;6150226;23;20607;-86
2022/04/02 13:15:19;;;;;;;3.05;1.30;;;;;;;;;;6142279;23;20100;-88
2022/04/02 13:21:29;;;;;;;2.78;1.13;;;;;;;;;;6154412;23;20460;-88
2022/04/02 13:24:10;;;;;;;2.13;0.95;;;;;;;;;;6179016;23;20020;-87
2022/04/02 13:26:38;;;;;;;3.42;1.10;;;;;;;;;;6208248;23;20453;-87
2022/04/02 13:29:23;;;;;;;2.53;1.10;;;;;;;;;;6206292;23;20089;-85
2022/04/02 13:32:07;;;;;;;4.47;1.05;;;;;;;;;;6206883;23;20079;-87
2022/04/02 13:34:41;;;;;;;5.03;1.30;;;;;;;;;;6208511;23;20028;-85
2022/04/02 13:40:17;;;;;;;3.28;1.13;;;;;;;;;;6182448;23;20135;-87
2022/04/02 13:42:50;;;;;;;2.67;1.30;;;;;;;;;;6207268;23;20099;-87
2022/04/02 13:45:17;;;;;;;8.32;3.70;;;;;;;;;;6181473;23;20336;-87
2022/04/02 13:47:43;;;;;;;7.15;3.30;;;;;;;;;;6208902;23;20079;-87
2022/04/02 13:50:13;;;;;;;5.05;1.60;;;;;;;;;;6219542;22;20111;-87
2022/04/02 13:52:48;;;;;;;5.13;2.17;;;;;;;;;;6240831;23;20103;-87
2022/04/02 13:55:16;;;;;;;3.15;1.30;;;;;;;;;;6239272;23;20457;-85
2022/04/02 13:57:52;;;;;;;3.40;1.52;;;;;;;;;;6209461;23;20052;-88
2022/04/02 14:00:21;;;;;;;5.82;1.63;;;;;;;;;;6211530;23;20103;-88
2022/04/02 14:02:47;;;;;;;6.45;1.42;;;;;;;;;;6235914;23;20024;-88
2022/04/02 14:05:19;;;;;;;2.85;1.60;;;;;;;;;;6238225;23;20020;-86
2022/04/02 14:11:21;;;;;;;6.30;1.90;;;;;;;;;;6224270;23;20479;-89
2022/04/02 14:14:07;;;;;;;4.38;1.88;;;;;;;;;;6211313;23;20084;-87
2022/04/02 14:16:34;;;;;;;4.15;1.88;;;;;;;;;;6177098;23;20038;-87
2022/04/02 14:22:11;;;;;;;3.63;1.63;;;;;;;;;;6230989;23;20098;-87
2022/04/02 14:28:18;;;;;;;6.20;1.75;;;;;;;;;;6239435;23;20058;-87
2022/04/02 14:41:24;;;;;;;4.53;1.40;;;;;;;;;;6267759;22;20073;-88
2022/04/02 14:44:09;;;;;;;4.50;1.50;;;;;;;;;;6238421;22;20024;-88
2022/04/02 14:46:54;;;;;;;3.80;1.20;;;;;;;;;;6211526;22;20012;-86
2022/04/02 14:49:20;;;;;;;1.13;1.00;;;;;;;;;;6239562;22;20479;-85
2022/04/02 14:51:52;;;;;;;3.75;1.25;;;;;;;;;;6263896;22;20023;-85
2022/04/02 14:54:37;;;;;;;2.78;0.88;;;;;;;;;;6266373;22;20460;-86
2022/04/02 14:57:16;;;;;;;3.30;1.40;;;;;;;;;;6263946;22;20085;-86
2022/04/02 15:00:01;;;;;;;5.20;1.23;;;;;;;;;;6212889;22;20331;-86
2022/04/02 15:02:46;;;;;;;4.50;1.20;;;;;;;;;;6266382;22;20046;-87
2022/04/02 15:05:25;;;;;;;2.03;0.90;;;;;;;;;;6236430;22;20383;-86
2022/04/02 15:08:13;;;;;;;5.00;1.35;;;;;;;;;;6239526;22;20027;-87
2022/04/02 15:17:26;;;;;;;1.05;0.82;;;;;;;;;;6274532;22;20102;-86
2022/04/02 15:20:17;;;;;;;4.03;1.00;;;;;;;;;;6202671;23;20377;-87
2022/04/02 15:25:49;;;;;;;4.32;0.75;;;;;;;;;;6202243;23;20095;-87
2022/04/02 15:28:23;;;;;;;3.08;1.40;;;;;;;;;;6204026;23;20123;-87
2022/04/02 15:30:50;;;;;;;4.78;1.45;;;;;;;;;;6203606;23;20051;-87
2022/04/02 15:36:59;;;;;;;3.67;2.60;;;;;;;;;;6204948;23;20097;-86
2022/04/02 15:39:27;;;;;;;2.55;1.63;;;;;;;;;;6174292;23;20032;-83
2022/04/02 15:42:22;;;;;;;6.78;1.67;;;;;;;;;;6183013;23;20015;-84
2022/04/02 15:44:54;;;;;;;4.13;1.55;;;;;;;;;;6203253;23;20020;-86
2022/04/02 15:47:51;;;;;;;1.75;1.15;;;;;;;;;;6176253;23;20428;-86
2022/04/02 15:50:17;;;;;;;3.60;1.30;;;;;;;;;;6219278;22;20370;-85
2022/04/02 15:56:06;;;;;;;3.05;1.00;;;;;;;;;;6269271;22;20352;-86
2022/04/02 16:01:59;;;;;;;2.70;1.20;;;;;;;;;;6266446;22;20026;-87
2022/04/02 16:04:26;;;;;;;1.48;0.98;;;;;;;;;;6235468;22;20045;-85
2022/04/02 16:06:53;;;;;;;3.28;1.05;;;;;;;;;;6237821;22;20611;-87
2022/04/02 16:09:19;;;;;;;1.77;0.82;;;;;;;;;;6236737;22;20406;-87
2022/04/02 16:11:48;;;;;;;6.20;0.70;;;;;;;;;;6268996;22;20019;-87
2022/04/02 16:14:16;;;;;;;3.22;0.73;;;;;;;;;;6271106;22;20020;-83
2022/04/02 16:17:02;;;;;;;1.63;0.77;;;;;;;;;;6211475;22;20016;-87
2022/04/02 16:19:40;;;;;;;3.42;0.90;;;;;;;;;;6240071;22;20412;-87
2022/04/02 16:22:27;;;;;;;1.55;0.68;;;;;;;;;;6264422;22;20020;-88
2022/04/02 16:25:03;;;;;;;1.73;0.70;;;;;;;;;;6266579;22;20019;-87
2022/04/02 16:30:31;;;;;;;3.38;0.70;;;;;;;;;;6264895;22;20093;-84
2022/04/02 16:32:59;;;;;;;2.85;0.75;;;;;;;;;;6265416;22;20015;-85
2022/04/02 16:35:25;;;;;;;3.60;1.60;;;;;;;;;;6267806;22;20497;-84
2022/04/02 16:41:08;;;;;;;3.33;1.02;;;;;;;;;;6266892;22;20022;-87
2022/04/02 16:43:34;;;;;;;1.58;1.15;;;;;;;;;;6211045;22;20464;-87
2022/04/02 16:46:12;;;;;;;1.83;0.77;;;;;;;;;;6265230;22;20190;-86
2022/04/02 16:51:39;;;;;;;2.47;0.70;;;;;;;;;;6263844;22;20035;-87
2022/04/02 16:57:41;;;;;;;2.05;0.68;;;;;;;;;;6273348;22;20099;-87
2022/04/02 17:00:11;;;;;;;3.28;0.50;;;;;;;;;;6269095;22;20123;-89
2022/04/02 17:02:38;;;;;;;2.03;0.60;;;;;;;;;;6241795;22;20027;-85
2022/04/02 17:05:26;;;;;;;5.00;0.60;;;;;;;;;;6280931;22;20004;-89
2022/04/02 17:08:13;;;;;;;1.25;0.70;;;;;;;;;;6226030;22;20503;-85
2022/04/02 17:10:39;;;;;;;1.77;0.68;;;;;;;;;;6288821;22;20016;-84
2022/04/02 17:13:06;;;;;;;2.45;0.60;;;;;;;;;;6280533;22;20051;-84
2022/04/02 17:15:33;;;;;;;2.67;0.80;;;;;;;;;;6281230;22;20026;-85
2022/04/02 17:18:12;;;;;;;2.05;0.70;;;;;;;;;;6272047;22;20387;-86
2022/04/02 17:20:40;;;;;;;2.83;0.70;;;;;;;;;;6279685;22;20109;-94